Latest Weather Observations for Victoria River Downs

IDD60801

Issued at 3:01 pm CST Sunday 20 August 2017 (issued every 30 minutes, with the page automatically refreshed every 10 minutes)

About weather observations | Map of weather stations | Latest weather observations for NT | Other Formats
Station Details ID: 014825 Name: VICTORIA RIVER DOWNS Lat: -16.40 Lon: 131.01 Height: 88.5 m
Data from the previous 72 hours. | See also: Recent months at Victoria River Downs
Date/Time
CST
Temp
°C
App
Temp
°C
Dew
Point
°C
Rel
Hum
%
Delta-T
°C
Wind Press
QNH
hPa
Press
MSL
hPa
Rain since
9am
mm
Dir  Spd
km/h
Gust
km/h
Spd
kts
Gust
kts
20/03:00pm 34.1 30.3 3.8 15 15.9 ENE 13 17 7 9 1012.2 1011.9 0.0
20/02:30pm 34.4 30.6 4.0 15 16.0 ENE 13 24 7 13 1012.8 - 0.0
20/02:00pm 33.7 30.0 4.4 16 15.5 E 13 20 7 11 1013.2 - 0.0
20/01:30pm 33.4 31.0 4.2 16 15.3 E 6 15 3 8 1013.9 - 0.0
20/01:00pm 32.3 29.3 4.2 17 14.7 NNE 9 17 5 9 1014.7 - 0.0
20/12:30pm 31.7 28.3 6.0 20 13.8 NE 13 19 7 10 1015.3 - 0.0
20/12:00pm 31.0 27.2 3.9 18 14.0 ENE 13 19 7 10 1016.0 1015.7 0.0
20/11:30am 30.1 26.4 4.7 20 13.2 ENE 13 20 7 11 1016.4 - 0.0
20/11:00am 29.6 26.4 2.8 18 13.4 E 9 15 5 8 1016.9 - 0.0
20/10:30am 28.4 - 1.8 18 13.0 - - - - - 1017.1 - 0.0
20/10:00am 27.4 24.0 1.8 19 12.4 NE 9 13 5 7 1017.3 - 0.0
20/09:30am 26.2 22.2 0.8 19 12.0 E 11 15 6 8 1017.2 - 0.0
20/09:05am 25.2 22.8 2.0 22 11.1 E 4 7 2 4 1017.2 - 0.0
20/09:00am 24.7 22.1 3.4 25 10.4 E 6 7 3 4 1017.2 1016.9 0.0
20/08:30am 20.6 19.8 6.5 40 7.1 CALM 0 0 0 0 1017.2 - 0.0
20/08:25am 19.4 18.6 6.5 43 6.5 CALM 0 0 0 0 1017.2 - 0.0
20/08:00am 17.2 16.1 5.2 45 5.8 CALM 0 0 0 0 1017.0 - 0.0
20/07:30am 14.7 12.3 5.2 53 4.5 W 7 7 4 4 1016.8 - 0.0
20/07:00am 14.3 12.0 4.9 53 4.4 W 6 7 3 4 1016.6 - 0.0
20/06:30am 14.4 13.3 5.0 53 4.4 CALM 0 6 0 3 1016.1 - 0.0
20/06:00am 14.1 11.7 4.4 52 4.5 WNW 6 11 3 6 1015.8 1015.5 0.0
20/05:30am 15.1 12.6 4.8 50 4.8 W 7 7 4 4 1015.4 - 0.0
20/05:00am 14.3 11.7 4.3 51 4.6 WNW 7 9 4 5 1015.1 - 0.0
20/04:30am 15.3 13.3 4.4 48 5.1 S 4 9 2 5 1014.9 - 0.0
20/04:00am 17.2 15.1 5.8 47 5.6 S 6 9 3 5 1014.9 - 0.0
20/03:30am 16.9 14.5 4.3 43 5.9 NNW 6 7 3 4 1015.0 - 0.0
20/03:00am 17.1 15.3 5.4 46 5.7 N 4 9 2 5 1014.7 1014.5 0.0
20/02:30am 16.3 13.8 4.7 46 5.5 WNW 7 9 4 5 1014.2 - 0.0
20/02:00am 16.5 14.0 4.5 45 5.7 WNW 7 9 4 5 1014.2 - 0.0
20/01:30am 17.2 14.7 4.9 44 5.9 WNW 7 9 4 5 1014.3 - 0.0
20/01:00am 17.2 16.1 4.9 44 5.9 CALM 0 0 0 0 1014.4 - 0.0
20/12:30am 17.2 16.0 4.5 43 6.0 CALM 0 0 0 0 1014.6 - 0.0
20/12:00am 18.0 16.5 4.9 42 6.3 SSW 2 7 1 4 1014.8 1014.3 0.0
 
Date/Time
CST
Temp
°C
App
Temp
°C
Dew
Point
°C
Rel
Hum
%
Delta-T
°C
Wind Press
QNH
hPa
Press
MSL
hPa
Rain since
9am
mm
Dir  Spd
km/h
Gust
km/h
Spd
kts
Gust
kts
19/11:30pm 18.1 16.8 3.9 39 6.7 CALM 0 4 0 2 1014.7 - 0.0
19/11:00pm 19.0 16.5 4.7 39 6.9 W 7 7 4 4 1014.8 - 0.0
19/10:30pm 19.2 17.9 4.2 37 7.2 CALM 0 0 0 0 1014.7 - 0.0
19/10:00pm 20.2 18.3 4.7 36 7.6 SSE 4 7 2 4 1014.5 - 0.0
19/09:30pm 21.1 19.8 4.2 33 8.2 CALM 0 0 0 0 1014.6 - 0.0
19/09:00pm 21.9 19.8 4.0 31 8.7 ESE 4 6 2 3 1014.4 1013.9 0.0
19/08:30pm 23.9 22.1 7.1 34 8.8 SE 6 7 3 4 1014.1 - 0.0
19/08:26pm 24.8 22.3 4.5 27 10.2 ESE 7 9 4 5 1014.1 - 0.0
19/08:00pm 26.4 24.4 6.9 29 10.3 ESE 7 9 4 5 1013.8 - 0.0
19/07:30pm 29.2 25.9 2.5 18 13.3 E 9 11 5 6 1013.5 - 0.0
19/07:00pm 30.6 27.4 2.8 17 14.0 E 9 11 5 6 1013.1 - 0.0
19/06:30pm 32.5 29.2 2.5 15 15.2 E 9 11 5 6 1012.8 - 0.0
19/06:00pm 34.3 30.7 3.0 14 16.2 E 11 15 6 8 1012.4 1012.0 0.0
19/05:30pm 34.7 30.4 3.3 14 16.4 ENE 15 20 8 11 1012.2 - 0.0
19/05:00pm 35.2 31.4 3.7 14 16.6 ESE 13 22 7 12 1012.0 - 0.0
19/04:30pm 35.0 31.1 3.5 14 16.5 E 13 19 7 10 1012.0 - 0.0
19/04:00pm 35.4 31.2 3.8 14 16.7 ENE 15 24 8 13 1012.1 - 0.0
19/03:30pm 35.9 31.4 4.2 14 16.9 ENE 17 26 9 14 1012.4 - 0.0
19/03:00pm 35.2 31.9 4.7 15 16.3 E 11 19 6 10 1012.8 1012.4 0.0
19/02:30pm 35.1 31.0 4.6 15 16.3 ENE 15 26 8 14 1013.2 - 0.0
19/02:00pm 34.7 31.4 4.3 15 16.1 ENE 11 17 6 9 1013.8 - 0.0
19/01:30pm 33.7 29.8 3.5 15 15.7 ESE 13 20 7 11 1014.4 - 0.0
19/01:00pm 32.9 29.5 3.8 16 15.1 SE 11 19 6 10 1015.1 - 0.0
19/12:30pm 32.1 28.5 3.1 16 14.9 E 11 19 6 10 1015.7 - 0.0
19/12:00pm 31.1 28.1 4.0 18 14.0 SE 9 17 5 9 1016.4 1016.1 0.0
19/11:30am 30.5 26.8 4.3 19 13.6 E 13 24 7 13 1017.0 - 0.0
19/11:00am 29.7 25.6 2.1 17 13.7 E 13 26 7 14 1017.6 - 0.0
19/10:30am 28.8 24.8 2.9 19 12.9 E 13 19 7 10 1017.9 - 0.0
19/10:00am 28.1 23.4 3.0 20 12.5 E 17 26 9 14 1018.0 - 0.0
19/09:30am 27.6 23.6 2.6 20 12.3 E 13 19 7 10 1018.1 - 0.0
19/09:00am 25.8 23.4 5.4 27 10.4 E 7 9 4 5 1017.8 1017.5 0.0
19/08:30am 23.0 22.0 8.7 40 7.7 SSE 4 7 2 4 1017.5 - 0.0
19/08:26am 21.7 21.6 9.6 46 6.5 CALM 0 6 0 3 1017.4 - 0.0
19/08:00am 18.9 18.8 9.4 54 5.0 CALM 0 0 0 0 1017.3 - 0.0
19/07:30am 16.4 14.7 8.4 59 4.1 W 7 9 4 5 1016.9 - 0.0
19/07:00am 17.0 15.8 9.4 61 4.0 WSW 6 9 3 5 1016.5 - 0.0
19/06:30am 16.2 15.8 8.4 60 4.0 CALM 0 0 0 0 1016.0 - 0.0
19/06:00am 16.5 16.2 8.5 59 4.1 CALM 0 7 0 4 1015.6 1015.1 0.0
19/05:30am 17.0 17.0 9.7 62 3.8 CALM 0 0 0 0 1015.1 - 0.0
19/05:00am 16.9 16.5 8.3 57 4.4 CALM 0 0 0 0 1014.8 - 0.0
19/04:30am 16.7 16.2 7.9 56 4.5 CALM 0 0 0 0 1014.6 - 0.0
19/04:00am 17.5 16.4 8.4 55 4.7 SE 4 9 2 5 1014.6 - 0.0
19/03:30am 17.7 16.2 8.6 55 4.7 W 6 7 3 4 1014.3 - 0.0
19/03:00am 17.8 17.3 7.8 52 5.1 CALM 0 0 0 0 1014.3 1013.8 0.0
19/02:30am 18.6 18.6 9.7 56 4.7 CALM 0 0 0 0 1014.3 - 0.0
19/02:00am 18.2 17.8 8.2 52 5.2 CALM 0 0 0 0 1014.3 - 0.0
19/01:30am 19.0 18.7 8.6 51 5.4 CALM 0 0 0 0 1014.1 - 0.0
19/01:00am 19.1 19.0 9.3 53 5.2 CALM 0 0 0 0 1014.2 - 0.0
19/12:30am 19.9 20.8 12.9 64 4.0 CALM 0 9 0 5 1014.2 - 0.0
19/12:00am 19.9 19.7 8.9 49 5.8 CALM 0 0 0 0 1014.1 1013.7 0.0
 
Date/Time
CST
Temp
°C
App
Temp
°C
Dew
Point
°C
Rel
Hum
%
Delta-T
°C
Wind Press
QNH
hPa
Press
MSL
hPa
Rain since
9am
mm
Dir  Spd
km/h
Gust
km/h
Spd
kts
Gust
kts
18/11:30pm 19.9 19.5 8.3 47 6.0 CALM 0 0 0 0 1014.1 - 0.0
18/11:00pm 21.3 22.1 12.7 58 4.9 CALM 0 0 0 0 1014.1 - 0.0
18/10:30pm 21.7 21.3 8.2 42 7.1 CALM 0 0 0 0 1014.0 - 0.0
18/10:00pm 22.4 22.1 8.5 41 7.4 CALM 0 0 0 0 1013.9 - 0.0
18/09:30pm 23.2 21.7 8.5 39 7.8 ENE 6 7 3 4 1013.7 - 0.0
18/09:00pm 24.6 23.2 9.0 37 8.5 ENE 6 7 3 4 1013.3 1012.8 0.0
18/08:30pm 25.6 24.1 8.6 34 9.2 ENE 6 6 3 3 1012.9 - 0.0
18/08:00pm 27.7 26.1 8.6 30 10.5 ENE 7 7 4 4 1012.4 - 0.0
18/07:30pm 29.0 27.2 7.0 25 11.8 NE 6 7 3 4 1012.0 - 0.0
18/07:00pm 31.6 29.1 6.6 21 13.5 NE 9 11 5 6 1011.7 - 0.0
18/06:30pm 34.0 31.1 6.3 18 15.1 ENE 11 15 6 8 1011.2 - 0.0
18/06:00pm 35.6 31.1 5.9 16 16.2 ENE 19 24 10 13 1010.9 1010.5 0.0
18/05:30pm 36.3 31.7 5.5 15 16.8 ENE 19 30 10 16 1010.6 - 0.0
18/05:00pm 36.7 32.2 5.9 15 16.9 E 19 28 10 15 1010.3 - 0.0
18/04:30pm 37.4 32.8 5.4 14 17.5 E 19 30 10 16 1010.3 - 0.0
18/04:00pm 37.1 32.2 5.2 14 17.4 E 20 33 11 18 1010.3 - 0.0
18/03:30pm 37.5 32.9 5.5 14 17.5 E 19 32 10 17 1010.4 - 0.0
18/03:00pm 37.6 32.4 5.6 14 17.6 ENE 22 32 12 17 1010.6 1010.4 0.0
18/02:30pm 37.5 33.3 7.4 16 17.0 ENE 19 32 10 17 1010.9 - 0.0
18/02:00pm 37.0 33.3 7.9 17 16.5 E 17 33 9 18 1011.4 - 0.0
18/01:30pm 36.5 32.3 9.9 20 15.5 ENE 22 35 12 19 1012.0 - 0.0
18/01:00pm 35.8 32.3 10.8 22 14.7 ENE 20 35 11 19 1012.5 - 0.0
18/12:30pm 35.4 32.9 12.4 25 13.9 NE 17 26 9 14 1013.0 - 0.0
18/12:00pm 33.1 30.1 12.1 27 12.5 NNE 19 30 10 16 1013.6 1013.3 0.0
18/11:30am 32.9 30.1 12.5 29 12.2 N 19 26 10 14 1014.2 - 0.0
18/11:00am 31.7 29.5 12.0 30 11.6 NE 15 20 8 11 1014.8 - 0.0
18/10:30am 30.9 30.1 12.8 33 10.8 NNE 9 17 5 9 1015.1 - 0.0
18/10:00am 29.5 28.5 12.4 35 10.1 ENE 9 15 5 8 1015.0 - 0.0
18/09:30am 27.2 26.0 12.8 41 8.4 ENE 11 13 6 7 1015.0 - 0.0
18/09:00am 25.8 23.8 11.6 41 8.1 ENE 13 15 7 8 1014.8 1014.3 0.0
18/08:30am 24.8 22.6 12.1 45 7.3 ENE 15 19 8 10 1014.4 - 0.0
18/08:00am 23.2 21.8 12.2 50 6.3 ENE 11 13 6 7 1014.1 - 0.0
18/07:30am 21.0 20.3 11.9 56 5.1 ENE 7 9 4 5 1013.7 - 0.0
18/07:00am 20.1 18.8 11.3 57 4.9 ENE 9 11 5 6 1013.2 - 0.0
18/06:30am 20.2 18.4 10.9 55 5.1 ENE 11 11 6 6 1012.8 - 0.0
18/06:00am 20.9 19.5 11.0 53 5.5 ENE 9 11 5 6 1012.2 1011.8 0.0
18/05:30am 21.3 20.1 11.6 54 5.4 E 9 11 5 6 1011.9 - 0.0
18/05:00am 20.3 18.3 11.5 57 4.9 ENE 13 13 7 7 1011.7 - 0.0
18/04:30am 19.0 17.9 10.8 59 4.5 ENE 7 7 4 4 1011.4 - 0.0
18/04:00am 19.2 18.4 11.0 59 4.5 ENE 6 7 3 4 1011.4 - 0.0
18/03:30am 19.0 19.1 10.0 56 4.8 CALM 0 0 0 0 1011.2 - 0.0
18/03:00am 20.1 20.8 12.3 61 4.4 CALM 0 0 0 0 1011.1 1010.8 0.0
18/02:30am 20.6 20.0 11.8 57 4.9 W 6 7 3 4 1011.2 - 0.0
18/02:00am 20.6 20.6 9.8 50 5.8 CALM 0 0 0 0 1011.2 - 0.0
18/01:30am 20.6 19.3 9.8 50 5.8 W 7 9 4 5 1011.4 - 0.0
18/01:00am 21.3 22.1 12.7 58 4.9 CALM 0 0 0 0 1011.6 - 0.0
18/12:30am 21.9 22.7 12.7 56 5.3 CALM 0 0 0 0 1011.6 - 0.0
18/12:00am 23.5 22.5 10.9 45 7.0 W 7 9 4 5 1011.4 1011.1 0.0
 
Date/Time
CST
Temp
°C
App
Temp
°C
Dew
Point
°C
Rel
Hum
%
Delta-T
°C
Wind Press
QNH
hPa
Press
MSL
hPa
Rain since
9am
mm
Dir  Spd
km/h
Gust
km/h
Spd
kts
Gust
kts
17/11:30pm 23.0 21.4 10.1 44 7.1 W 9 11 5 6 1011.3 - 0.0
17/11:00pm 23.0 23.4 11.1 47 6.6 CALM 0 7 0 4 1011.4 - 0.0
17/10:30pm 23.3 22.3 10.4 44 7.1 NNE 6 9 3 5 1011.3 - 0.0
17/10:00pm 23.4 22.8 10.5 44 7.1 NNE 4 9 2 5 1011.2 - 0.0
17/09:30pm 24.8 24.0 11.7 44 7.5 ESE 7 9 4 5 1011.0 - 0.0
17/09:00pm 25.1 24.6 9.4 37 8.6 WNW 2 0 1 0 1010.7 1010.3 0.0
17/08:30pm 25.8 24.4 9.6 36 8.9 WNW 7 7 4 4 1010.4 - 0.0
17/08:00pm 27.6 27.1 12.0 38 9.0 WSW 6 9 3 5 1009.9 - 0.0
17/07:30pm 29.1 28.0 9.8 30 10.9 WSW 6 7 3 4 1009.5 - 0.0
17/07:00pm 31.2 29.8 9.4 26 12.3 WNW 7 9 4 5 1009.2 - 0.0
17/06:30pm 33.5 32.7 9.5 23 13.7 WSW 4 7 2 4 1008.8 - 0.0
17/06:00pm 35.5 33.8 8.3 19 15.4 N 7 9 4 5 1008.4 1008.1 0.0
17/05:30pm 36.0 35.2 8.0 18 15.8 S 2 7 1 4 1008.2 - 0.0
17/05:00pm 36.0 34.2 7.1 17 16.1 S 6 11 3 6 1008.3 - 0.0
17/04:30pm 36.7 34.8 7.7 17 16.4 NE 7 11 4 6 1008.3 - 0.0
17/04:00pm 36.3 34.0 7.4 17 16.2 NNW 9 13 5 7 1008.4 - 0.0
17/03:30pm 36.4 34.5 7.4 17 16.3 ENE 7 13 4 7 1008.5 - 0.0

Other Formats:

Comma delimited format used in spreadsheet applications
http://www.bom.gov.au/fwo/IDD60801/IDD60801.94232.axf

JavaScript Object Notation format (JSON) in row-major order
http://www.bom.gov.au/fwo/IDD60801/IDD60801.94232.json